createdAt,value
2023-06-30T00:00:29.546Z,74.59
2023-06-30T00:01:29.579Z,75.19
2023-06-30T00:02:29.593Z,75.49
2023-06-30T00:03:30.290Z,75.99
2023-06-30T00:04:29.555Z,75.33
2023-06-30T00:05:30.957Z,75.93
2023-06-30T00:06:29.471Z,76.43
2023-06-30T00:07:29.481Z,76.33
2023-06-30T00:08:29.466Z,76.43
2023-06-30T00:09:29.420Z,76.43
2023-06-30T00:10:29.456Z,76.03
2023-06-30T00:11:30.474Z,76.83
2023-06-30T00:12:29.934Z,76.76
2023-06-30T00:13:29.448Z,77.13
2023-06-30T00:14:29.976Z,78.47
2023-06-30T00:15:29.414Z,78.27
2023-06-30T00:16:30.046Z,78.97
2023-06-30T00:17:29.392Z,79.86
2023-06-30T00:18:29.592Z,80.47
2023-06-30T00:19:29.342Z,80.57
2023-06-30T00:20:29.440Z,81.11
2023-06-30T00:21:29.367Z,82.01
2023-06-30T00:22:29.309Z,82.01
2023-06-30T00:23:29.329Z,83.45
2023-06-30T00:24:29.288Z,82.65
2023-06-30T00:25:29.282Z,84.85
2023-06-30T00:26:29.270Z,85.46
2023-06-30T00:27:29.245Z,85.60
2023-06-30T00:28:29.243Z,85.39
2023-06-30T00:29:29.977Z,87.60
2023-06-30T00:30:30.346Z,86.64
2023-06-30T00:31:31.047Z,88.14
2023-06-30T00:32:29.210Z,87.34
2023-06-30T00:33:29.208Z,88.04
2023-06-30T00:34:29.173Z,88.59
2023-06-30T00:35:29.200Z,89.29
2023-06-30T00:36:29.163Z,89.69
2023-06-30T00:37:29.165Z,89.59
2023-06-30T00:38:29.257Z,90.09
2023-06-30T00:39:29.127Z,87.78
2023-06-30T00:40:29.245Z,89.09
2023-06-30T00:41:29.106Z,88.29
2023-06-30T00:42:29.116Z,89.59
2023-06-30T00:43:29.074Z,89.18
2023-06-30T00:44:29.086Z,90.73
2023-06-30T00:45:29.064Z,90.33
2023-06-30T00:46:29.087Z,89.63
2023-06-30T00:47:29.602Z,90.44
2023-06-30T00:48:29.065Z,90.73
2023-06-30T00:49:29.009Z,91.03
2023-06-30T00:50:29.997Z,90.94
2023-06-30T00:51:28.988Z,91.24
2023-06-30T00:52:28.984Z,91.34
2023-06-30T00:53:28.993Z,90.33
2023-06-30T00:54:28.963Z,90.48
2023-06-30T00:55:28.939Z,90.28
2023-06-30T00:56:28.931Z,90.48
2023-06-30T00:57:28.908Z,90.58
2023-06-30T00:58:28.971Z,90.48
2023-06-30T00:59:28.892Z,91.38
2023-06-30T01:00:28.886Z,91.08
2023-06-30T01:01:28.944Z,90.58
2023-06-30T01:02:29.039Z,90.48
2023-06-30T01:03:29.532Z,90.48
2023-06-30T01:04:29.082Z,89.87
2023-06-30T01:05:29.945Z,90.88
2023-06-30T01:06:28.863Z,91.08
2023-06-30T01:07:28.830Z,90.78
2023-06-30T01:08:28.800Z,91.38
2023-06-30T01:09:28.824Z,90.62
2023-06-30T01:10:28.789Z,91.02
2023-06-30T01:11:28.820Z,91.63
2023-06-30T01:12:28.873Z,91.52
2023-06-30T01:13:30.342Z,92.23
2023-06-30T01:14:28.758Z,92.83
2023-06-30T01:15:28.710Z,91.52
2023-06-30T01:16:28.793Z,92.43
2023-06-30T01:17:28.751Z,92.53
2023-06-30T01:18:28.705Z,93.08
2023-06-30T01:19:29.509Z,92.77
2023-06-30T01:20:28.684Z,93.08
2023-06-30T01:21:28.670Z,93.38
2023-06-30T01:22:28.744Z,93.78
2023-06-30T01:23:28.661Z,94.08
2023-06-30T01:24:28.648Z,94.38
2023-06-30T01:25:28.633Z,94.38
2023-06-30T01:26:28.654Z,94.89
2023-06-30T01:27:28.648Z,94.89
2023-06-30T01:28:28.581Z,95.43
2023-06-30T01:29:28.589Z,95.84
2023-06-30T01:30:29.551Z,95.64
2023-06-30T01:31:29.063Z,95.84
2023-06-30T01:32:29.114Z,96.04
2023-06-30T01:33:31.008Z,96.24
2023-06-30T01:34:28.534Z,96.34
2023-06-30T01:35:29.149Z,96.54
2023-06-30T01:36:28.524Z,96.34
2023-06-30T01:37:28.661Z,96.74
2023-06-30T01:38:28.495Z,96.84
2023-06-30T01:39:28.487Z,97.04
2023-06-30T01:40:28.616Z,96.84
2023-06-30T01:41:28.458Z,96.74
2023-06-30T01:42:28.487Z,96.94
2023-06-30T01:43:28.969Z,96.74
2023-06-30T01:44:28.426Z,96.89
2023-06-30T01:45:29.424Z,96.89
2023-06-30T01:46:28.513Z,96.98
2023-06-30T01:47:28.455Z,97.19
2023-06-30T01:48:28.591Z,96.98
2023-06-30T01:49:28.394Z,96.98
2023-06-30T01:50:28.355Z,97.14
2023-06-30T01:51:28.356Z,97.24
2023-06-30T01:52:28.352Z,97.55
2023-06-30T01:53:28.343Z,97.14
2023-06-30T01:54:28.362Z,97.44
2023-06-30T01:55:28.309Z,97.44
2023-06-30T01:56:28.289Z,97.39
2023-06-30T01:57:28.318Z,97.49
2023-06-30T01:58:28.272Z,97.55
2023-06-30T01:59:28.281Z,97.55
2023-06-30T02:00:28.277Z,97.69
2023-06-30T02:01:30.536Z,97.95
2023-06-30T02:02:28.308Z,97.89
2023-06-30T02:03:28.382Z,97.89
2023-06-30T02:04:28.220Z,98.19
2023-06-30T02:05:28.232Z,97.99
2023-06-30T02:06:28.191Z,97.99
2023-06-30T02:07:28.251Z,98.19
2023-06-30T02:08:28.232Z,98.19
2023-06-30T02:09:38.794Z,98.30
2023-06-30T02:10:28.348Z,98.50
2023-06-30T02:11:28.158Z,98.80
2023-06-30T02:12:28.117Z,98.70
2023-06-30T02:13:28.522Z,98.80
2023-06-30T02:14:28.063Z,98.70
2023-06-30T02:15:28.278Z,98.50
2023-06-30T02:16:28.191Z,98.70
2023-06-30T02:17:28.173Z,98.30
2023-06-30T02:18:28.506Z,98.39
2023-06-30T02:19:28.052Z,98.60
2023-06-30T02:20:28.530Z,98.70
2023-06-30T02:21:28.044Z,98.19
2023-06-30T02:22:28.009Z,98.50
2023-06-30T02:23:28.025Z,98.80
2023-06-30T02:24:28.029Z,98.90
2023-06-30T02:25:27.988Z,99.20
2023-06-30T02:26:27.967Z,99.30
2023-06-30T02:27:30.373Z,99.10
2023-06-30T02:28:27.947Z,98.80
2023-06-30T02:29:27.933Z,98.90
2023-06-30T02:30:27.899Z,99.00
2023-06-30T02:31:28.697Z,98.90
2023-06-30T02:32:27.884Z,98.90
2023-06-30T02:33:27.864Z,98.80
2023-06-30T02:34:27.849Z,98.80
2023-06-30T02:35:27.926Z,98.70
2023-06-30T02:36:27.812Z,98.70
2023-06-30T02:37:29.530Z,99.00
2023-06-30T02:38:27.791Z,98.70
2023-06-30T02:39:28.541Z,98.90
2023-06-30T02:40:27.766Z,99.00
2023-06-30T02:41:27.766Z,99.40
2023-06-30T02:42:27.749Z,99.99
2023-06-30T02:43:27.746Z,99.80
2023-06-30T02:44:27.744Z,99.20
2023-06-30T02:45:28.405Z,99.00
2023-06-30T02:46:27.762Z,98.90
2023-06-30T02:47:27.744Z,98.94
2023-06-30T02:48:27.705Z,98.74
2023-06-30T02:49:27.745Z,98.94
2023-06-30T02:50:27.663Z,99.05
2023-06-30T02:51:27.682Z,99.15
2023-06-30T02:52:27.637Z,99.35
2023-06-30T02:53:27.662Z,99.45
2023-06-30T02:54:27.624Z,99.55
2023-06-30T02:55:27.850Z,99.65
2023-06-30T02:56:27.590Z,99.55
2023-06-30T02:57:28.196Z,99.45
2023-06-30T02:58:27.806Z,99.55
2023-06-30T02:59:27.565Z,99.65
2023-06-30T03:00:27.735Z,99.80
2023-06-30T03:01:27.687Z,99.90
2023-06-30T03:02:27.863Z,99.90
2023-06-30T03:03:27.580Z,99.90
2023-06-30T03:04:27.513Z,99.99
2023-06-30T03:05:27.553Z,99.99
2023-06-30T03:06:27.503Z,99.99
2023-06-30T03:07:27.526Z,99.99
2023-06-30T03:08:27.465Z,99.99
2023-06-30T03:09:27.458Z,99.99
2023-06-30T03:10:27.475Z,99.99
2023-06-30T03:11:27.488Z,99.99
2023-06-30T03:12:27.424Z,99.99
2023-06-30T03:13:27.988Z,99.99
2023-06-30T03:14:27.407Z,99.99
2023-06-30T03:15:27.635Z,99.99
2023-06-30T03:16:27.428Z,99.99
2023-06-30T03:17:27.442Z,99.99
2023-06-30T03:18:27.353Z,99.99
2023-06-30T03:19:27.431Z,99.99
2023-06-30T03:20:27.336Z,99.99
2023-06-30T03:21:27.375Z,99.99
2023-06-30T03:22:27.894Z,99.99
2023-06-30T03:23:27.312Z,99.99
2023-06-30T03:24:27.290Z,99.99
2023-06-30T03:25:27.304Z,99.99
2023-06-30T03:26:27.797Z,99.99
2023-06-30T03:27:27.264Z,99.99
2023-06-30T03:28:27.296Z,99.99
2023-06-30T03:29:28.042Z,99.99
2023-06-30T03:30:27.803Z,99.99
2023-06-30T03:31:27.429Z,99.99
2023-06-30T03:32:27.359Z,99.99
2023-06-30T03:33:27.295Z,99.99
2023-06-30T03:34:27.188Z,99.99
2023-06-30T03:35:28.040Z,99.99
2023-06-30T03:36:27.156Z,99.99
2023-06-30T03:37:27.164Z,99.99
2023-06-30T03:38:27.135Z,99.99
2023-06-30T03:39:27.570Z,99.99
2023-06-30T03:40:27.207Z,99.99
2023-06-30T03:41:28.184Z,99.99
2023-06-30T03:42:28.089Z,99.80
2023-06-30T03:43:27.105Z,99.19
2023-06-30T03:44:27.068Z,98.99
2023-06-30T03:45:27.118Z,98.99
2023-06-30T03:46:27.079Z,99.10
2023-06-30T03:47:27.117Z,99.15
2023-06-30T03:48:27.561Z,99.05
2023-06-30T03:49:27.066Z,98.74
2023-06-30T03:50:27.066Z,98.65
2023-06-30T03:51:27.537Z,98.44
2023-06-30T03:52:26.988Z,98.44
2023-06-30T03:53:26.984Z,98.44
2023-06-30T03:54:27.596Z,98.44
2023-06-30T03:55:26.992Z,98.34
2023-06-30T03:56:26.950Z,98.54
2023-06-30T03:57:26.959Z,98.54
2023-06-30T03:58:27.045Z,98.54
2023-06-30T03:59:26.922Z,98.30
2023-06-30T04:00:27.099Z,98.34
2023-06-30T04:01:26.905Z,98.50
2023-06-30T04:02:27.058Z,98.44
2023-06-30T04:03:28.153Z,98.39
2023-06-30T04:04:26.999Z,98.39
2023-06-30T04:05:26.904Z,98.39
2023-06-30T04:06:26.841Z,98.19
2023-06-30T04:07:26.970Z,98.10
2023-06-30T04:08:26.991Z,97.99
2023-06-30T04:09:26.832Z,98.19
2023-06-30T04:10:27.818Z,98.19
2023-06-30T04:11:26.791Z,98.35
2023-06-30T04:12:26.785Z,98.25
2023-06-30T04:13:27.365Z,98.05
2023-06-30T04:14:26.744Z,97.55
2023-06-30T04:15:26.746Z,97.14
2023-06-30T04:16:27.310Z,96.74
2023-06-30T04:17:27.519Z,96.54
2023-06-30T04:18:27.138Z,96.44
2023-06-30T04:19:28.050Z,96.39
2023-06-30T04:20:26.690Z,96.30
2023-06-30T04:21:26.699Z,96.09
2023-06-30T04:22:26.699Z,96.50
2023-06-30T04:23:26.714Z,96.50
2023-06-30T04:24:26.722Z,95.99
2023-06-30T04:25:26.657Z,96.55
2023-06-30T04:26:27.572Z,96.45
2023-06-30T04:27:27.167Z,96.55
2023-06-30T04:28:26.639Z,96.15
2023-06-30T04:29:26.610Z,95.84
2023-06-30T04:30:26.589Z,95.44
2023-06-30T04:31:27.146Z,95.24
2023-06-30T04:32:26.580Z,94.64
2023-06-30T04:33:26.621Z,94.94
2023-06-30T04:34:26.539Z,94.44
2023-06-30T04:35:26.880Z,94.70
2023-06-30T04:36:26.663Z,94.59
2023-06-30T04:37:26.560Z,93.99
2023-06-30T04:38:26.523Z,94.09
2023-06-30T04:39:26.505Z,93.99
2023-06-30T04:40:26.487Z,94.05
2023-06-30T04:41:27.120Z,93.44
2023-06-30T04:42:26.498Z,93.55
2023-06-30T04:43:26.454Z,93.44
2023-06-30T04:44:26.454Z,92.94
2023-06-30T04:45:26.461Z,92.54
2023-06-30T04:46:26.792Z,92.74
2023-06-30T04:47:26.481Z,92.50
2023-06-30T04:48:26.401Z,92.10
2023-06-30T04:49:26.397Z,92.00
2023-06-30T04:50:26.456Z,92.30
2023-06-30T04:51:26.375Z,92.80
2023-06-30T04:52:26.375Z,92.80
2023-06-30T04:53:26.367Z,93.10
2023-06-30T04:54:26.332Z,92.80
2023-06-30T04:55:26.342Z,92.50
2023-06-30T04:56:27.128Z,92.30
2023-06-30T04:57:26.350Z,91.69
2023-06-30T04:58:27.032Z,91.60
2023-06-30T04:59:26.308Z,92.15
2023-06-30T05:00:26.275Z,91.80
2023-06-30T05:01:26.319Z,92.05
2023-06-30T05:02:26.323Z,92.15
2023-06-30T05:03:26.280Z,91.65
2023-06-30T05:04:26.214Z,91.45
2023-06-30T05:05:26.425Z,91.75
2023-06-30T05:06:26.254Z,91.65
2023-06-30T05:07:26.251Z,91.55
2023-06-30T05:08:27.074Z,91.65
2023-06-30T05:09:26.183Z,91.75
2023-06-30T05:10:26.175Z,90.91
2023-06-30T05:11:26.202Z,91.20
2023-06-30T05:12:26.140Z,91.41
2023-06-30T05:13:26.129Z,90.96
2023-06-30T05:14:26.128Z,90.96
2023-06-30T05:15:26.109Z,90.16
2023-06-30T05:16:26.218Z,89.86
2023-06-30T05:17:26.295Z,88.96
2023-06-30T05:18:26.094Z,88.86
2023-06-30T05:19:26.076Z,88.96
2023-06-30T05:20:26.143Z,89.06
2023-06-30T05:21:26.111Z,88.56
2023-06-30T05:22:26.057Z,88.76
2023-06-30T05:23:26.049Z,88.06
2023-06-30T05:24:26.063Z,88.21
2023-06-30T05:25:26.031Z,87.82
2023-06-30T05:26:25.984Z,88.18
2023-06-30T05:27:25.991Z,88.07
2023-06-30T05:28:25.978Z,87.48
2023-06-30T05:29:27.627Z,86.33
2023-06-30T05:30:25.955Z,85.33
2023-06-30T05:31:25.989Z,85.49
2023-06-30T05:32:26.029Z,84.09
2023-06-30T05:33:25.933Z,81.99
2023-06-30T05:34:25.936Z,82.79
2023-06-30T05:35:26.026Z,82.69
2023-06-30T05:36:25.929Z,81.19
2023-06-30T05:37:25.929Z,82.45
2023-06-30T05:38:25.891Z,82.55
2023-06-30T05:39:25.879Z,81.41
2023-06-30T05:40:26.840Z,81.21
2023-06-30T05:41:25.909Z,79.28
2023-06-30T05:42:25.888Z,78.98
2023-06-30T05:43:25.810Z,79.08
2023-06-30T05:44:25.829Z,79.08
2023-06-30T05:45:25.795Z,78.88
2023-06-30T05:46:25.926Z,78.78
2023-06-30T05:47:25.834Z,79.97
2023-06-30T05:48:25.758Z,79.48
2023-06-30T05:49:25.761Z,78.14
2023-06-30T05:50:25.721Z,77.84
2023-06-30T05:51:25.781Z,77.14
2023-06-30T05:52:25.706Z,76.15
2023-06-30T05:53:25.719Z,76.28
2023-06-30T05:54:25.713Z,77.28
2023-06-30T05:55:27.562Z,77.44
2023-06-30T05:56:25.666Z,77.84
2023-06-30T05:57:25.657Z,78.64
2023-06-30T05:58:25.690Z,79.04
2023-06-30T05:59:25.633Z,77.84
2023-06-30T06:00:25.644Z,77.91
2023-06-30T06:01:25.638Z,77.01
2023-06-30T06:02:25.674Z,76.51
2023-06-30T06:03:25.685Z,76.61
2023-06-30T06:04:25.767Z,75.31
2023-06-30T06:05:25.814Z,74.11
2023-06-30T06:06:25.579Z,73.91
2023-06-30T06:07:25.620Z,74.21
2023-06-30T06:08:26.168Z,74.21
2023-06-30T06:09:25.556Z,73.91
2023-06-30T06:10:25.531Z,74.32
2023-06-30T06:11:25.549Z,74.11
2023-06-30T06:12:26.098Z,73.52
2023-06-30T06:13:25.577Z,72.81
2023-06-30T06:14:25.481Z,74.25
2023-06-30T06:15:25.488Z,74.32
2023-06-30T06:16:25.485Z,73.91
2023-06-30T06:17:25.458Z,72.62
2023-06-30T06:18:25.510Z,74.58
2023-06-30T06:19:25.469Z,73.58
2023-06-30T06:20:25.437Z,73.94
2023-06-30T06:21:25.419Z,73.88
2023-06-30T06:22:25.482Z,74.48
2023-06-30T06:23:26.149Z,71.02
2023-06-30T06:24:25.445Z,71.92
2023-06-30T06:25:25.369Z,73.61
2023-06-30T06:26:25.381Z,72.81
2023-06-30T06:27:25.381Z,74.51
2023-06-30T06:28:25.342Z,73.52
2023-06-30T06:29:25.320Z,74.32
2023-06-30T06:30:25.306Z,74.62
2023-06-30T06:31:25.409Z,74.51
2023-06-30T06:32:25.384Z,74.32
2023-06-30T06:33:25.288Z,75.01
2023-06-30T06:34:25.269Z,75.71
2023-06-30T06:35:25.312Z,75.31
2023-06-30T06:36:25.297Z,73.78
2023-06-30T06:37:25.256Z,74.08
2023-06-30T06:38:25.252Z,72.75
2023-06-30T06:39:25.262Z,72.25
2023-06-30T06:40:25.223Z,71.95
2023-06-30T06:41:25.200Z,71.75
2023-06-30T06:42:25.216Z,72.35
2023-06-30T06:43:25.234Z,71.45
2023-06-30T06:44:25.180Z,71.85
2023-06-30T06:45:25.149Z,70.99
2023-06-30T06:46:25.200Z,73.08
2023-06-30T06:47:25.138Z,71.89
2023-06-30T06:48:25.218Z,71.72
2023-06-30T06:49:25.111Z,72.92
2023-06-30T06:50:25.098Z,71.86
2023-06-30T06:51:25.115Z,73.25
2023-06-30T06:52:25.092Z,73.75
2023-06-30T06:53:25.063Z,74.05
2023-06-30T06:54:25.105Z,74.55
2023-06-30T06:55:25.043Z,74.95
2023-06-30T06:56:25.058Z,74.35
2023-06-30T06:57:25.014Z,74.55
2023-06-30T06:58:25.034Z,74.15
2023-06-30T06:59:24.995Z,74.05
2023-06-30T07:00:24.997Z,74.15
2023-06-30T07:01:25.984Z,74.25
2023-06-30T07:02:25.067Z,74.65
2023-06-30T07:03:24.990Z,75.35
2023-06-30T07:04:24.958Z,75.05
2023-06-30T07:05:24.913Z,74.45
2023-06-30T07:06:24.929Z,75.05
2023-06-30T07:07:24.939Z,75.05
2023-06-30T07:08:24.925Z,75.28
2023-06-30T07:09:24.966Z,75.28
2023-06-30T07:10:24.959Z,75.62
2023-06-30T07:11:24.959Z,76.62
2023-06-30T07:12:24.941Z,77.02
2023-06-30T07:13:24.877Z,77.15
2023-06-30T07:14:24.856Z,77.25
2023-06-30T07:15:24.826Z,78.16
2023-06-30T07:16:24.864Z,77.95
2023-06-30T07:17:24.808Z,78.05
2023-06-30T07:18:24.983Z,77.95
2023-06-30T07:19:24.795Z,77.75
2023-06-30T07:20:24.807Z,78.05
2023-06-30T07:21:24.756Z,77.66
2023-06-30T07:22:24.747Z,77.66
2023-06-30T07:23:26.910Z,77.95
2023-06-30T07:24:24.982Z,78.69
2023-06-30T07:25:24.751Z,78.49
2023-06-30T07:26:24.697Z,79.09
2023-06-30T07:27:24.685Z,79.49
2023-06-30T07:28:24.765Z,78.99
2023-06-30T07:29:24.656Z,78.75
2023-06-30T07:30:24.756Z,78.49
2023-06-30T07:31:24.739Z,78.89
2023-06-30T07:32:25.573Z,78.79
2023-06-30T07:33:24.621Z,79.16
2023-06-30T07:34:24.619Z,78.45
2023-06-30T07:35:24.648Z,78.45
2023-06-30T07:36:24.593Z,78.05
2023-06-30T07:37:24.588Z,78.52
2023-06-30T07:38:24.585Z,78.12
2023-06-30T07:39:24.574Z,77.92
2023-06-30T07:40:25.012Z,77.68
2023-06-30T07:41:24.600Z,77.18
2023-06-30T07:42:24.545Z,77.58
2023-06-30T07:43:24.529Z,76.84
2023-06-30T07:44:24.510Z,76.65
2023-06-30T07:45:24.538Z,76.21
2023-06-30T07:46:25.269Z,75.91
2023-06-30T07:47:24.558Z,75.51
2023-06-30T07:48:24.653Z,75.61
2023-06-30T07:49:24.442Z,75.81
2023-06-30T07:50:24.467Z,76.21
2023-06-30T07:51:24.559Z,76.31
2023-06-30T07:52:25.271Z,76.01
2023-06-30T07:53:24.492Z,75.51
2023-06-30T07:54:24.389Z,75.71
2023-06-30T07:55:24.487Z,75.74
2023-06-30T07:56:24.376Z,76.58
2023-06-30T07:57:24.412Z,76.84
2023-06-30T07:58:24.346Z,77.28
2023-06-30T07:59:24.365Z,77.38
2023-06-30T08:00:24.370Z,77.48
2023-06-30T08:01:24.308Z,77.28
2023-06-30T08:02:24.354Z,78.08
2023-06-30T08:03:24.417Z,78.18
2023-06-30T08:04:24.554Z,78.72
2023-06-30T08:05:24.473Z,78.52
2023-06-30T08:06:24.256Z,77.82
2023-06-30T08:07:48.192Z,78.08
2023-06-30T08:08:24.285Z,77.58
2023-06-30T08:09:24.285Z,77.25
2023-06-30T08:10:24.218Z,76.75
2023-06-30T08:11:24.251Z,76.21
2023-06-30T08:12:24.205Z,75.91
2023-06-30T08:13:24.972Z,75.27
2023-06-30T08:14:24.259Z,74.84
2023-06-30T08:15:24.298Z,73.51
2023-06-30T08:16:24.153Z,73.18
2023-06-30T08:17:31.431Z,72.78
2023-06-30T08:18:31.961Z,72.25
2023-06-30T08:19:49.089Z,71.22
2023-06-30T08:20:24.464Z,70.52
2023-06-30T08:21:24.162Z,71.42
2023-06-30T08:22:24.114Z,71.28
2023-06-30T08:23:24.080Z,69.89
2023-06-30T08:24:24.098Z,68.04
2023-06-30T08:25:24.162Z,68.33
2023-06-30T08:26:24.097Z,68.50
2023-06-30T08:27:24.057Z,69.43
2023-06-30T08:28:24.022Z,69.92
2023-06-30T08:29:24.017Z,69.82
2023-06-30T08:30:25.360Z,69.59
2023-06-30T08:31:24.069Z,68.66
2023-06-30T08:32:24.061Z,68.16
2023-06-30T08:33:38.855Z,68.83
2023-06-30T08:34:24.000Z,70.06
2023-06-30T08:35:23.959Z,70.45
2023-06-30T08:36:24.000Z,70.82
2023-06-30T08:37:23.930Z,69.49
2023-06-30T08:38:23.917Z,67.74
2023-06-30T08:39:23.959Z,66.91
2023-06-30T08:40:23.927Z,67.11
2023-06-30T08:41:23.925Z,67.50
2023-06-30T08:42:23.885Z,66.85
2023-06-30T08:43:23.873Z,66.44
2023-06-30T08:44:23.888Z,66.85
2023-06-30T08:45:23.864Z,66.74
2023-06-30T08:46:23.945Z,66.74
2023-06-30T08:47:23.860Z,67.74
2023-06-30T08:48:23.827Z,67.74
2023-06-30T08:49:23.793Z,67.41
2023-06-30T08:50:23.801Z,66.41
2023-06-30T08:51:23.795Z,66.71
2023-06-30T08:52:23.771Z,67.83
2023-06-30T08:53:23.774Z,68.43
2023-06-30T08:54:23.746Z,68.86
2023-06-30T08:55:23.773Z,69.36
2023-06-30T08:56:23.744Z,69.39
2023-06-30T08:57:23.734Z,70.09
2023-06-30T08:58:26.486Z,70.59
2023-06-30T08:59:23.694Z,70.39
2023-06-30T09:00:23.722Z,71.12
2023-06-30T09:01:23.714Z,71.01
2023-06-30T09:02:23.817Z,70.92
2023-06-30T09:03:23.782Z,70.92
2023-06-30T09:04:23.642Z,70.52
2023-06-30T09:05:23.833Z,70.75
2023-06-30T09:06:23.631Z,71.55
2023-06-30T09:07:23.683Z,72.48
2023-06-30T09:08:23.620Z,72.68
2023-06-30T09:09:23.627Z,72.98
2023-06-30T09:10:23.601Z,73.41
2023-06-30T09:11:23.562Z,73.81
2023-06-30T09:12:23.568Z,73.51
2023-06-30T09:13:23.568Z,74.11
2023-06-30T09:14:23.550Z,73.47
2023-06-30T09:15:23.572Z,73.47
2023-06-30T09:16:23.538Z,73.51
2023-06-30T09:17:23.525Z,73.61
2023-06-30T09:18:23.529Z,74.01
2023-06-30T09:19:23.504Z,75.04
2023-06-30T09:20:23.495Z,76.64
2023-06-30T09:21:27.413Z,79.06
2023-06-30T09:22:53.621Z,78.67
2023-06-30T09:23:23.680Z,80.90
2023-06-30T09:24:23.518Z,80.90
2023-06-30T09:25:23.499Z,81.63
2023-06-30T09:26:23.483Z,81.27
2023-06-30T09:27:23.407Z,81.98
2023-06-30T09:28:23.415Z,83.41
2023-06-30T09:29:23.385Z,83.71
2023-06-30T09:30:23.376Z,84.91
2023-06-30T09:31:23.409Z,85.41
2023-06-30T09:32:23.484Z,83.95
2023-06-30T09:33:23.354Z,84.45
2023-06-30T09:34:23.443Z,86.95
2023-06-30T09:35:23.328Z,89.05
2023-06-30T09:36:23.341Z,90.09
2023-06-30T09:37:23.800Z,89.53
2023-06-30T09:38:23.303Z,91.98
2023-06-30T09:39:23.267Z,91.92
2023-06-30T09:40:23.266Z,93.43
2023-06-30T09:41:23.269Z,94.27
2023-06-30T09:42:23.372Z,94.51
2023-06-30T09:43:23.344Z,96.22
2023-06-30T09:44:23.267Z,97.02
2023-06-30T09:45:23.238Z,97.17
2023-06-30T09:46:24.203Z,96.67
2023-06-30T09:47:23.231Z,95.42
2023-06-30T09:48:23.198Z,95.82
2023-06-30T09:49:23.230Z,96.47
2023-06-30T09:50:23.161Z,94.97
2023-06-30T09:51:23.151Z,95.77
2023-06-30T09:52:23.160Z,97.13
2023-06-30T09:53:23.120Z,94.62
2023-06-30T09:54:39.266Z,94.68
2023-06-30T09:55:23.149Z,94.93
2023-06-30T09:56:23.190Z,92.49
2023-06-30T09:57:23.159Z,93.35
2023-06-30T09:58:23.075Z,91.80
2023-06-30T09:59:23.082Z,89.86
2023-06-30T10:00:35.736Z,88.22
2023-06-30T10:01:23.064Z,90.28
2023-06-30T10:02:23.068Z,89.28
2023-06-30T10:03:23.209Z,87.78
2023-06-30T10:04:22.994Z,89.87
2023-06-30T10:05:23.073Z,89.38
2023-06-30T10:06:22.976Z,87.02
2023-06-30T10:07:23.012Z,87.27
2023-06-30T10:08:23.026Z,87.46
2023-06-30T10:09:22.966Z,87.76
2023-06-30T10:10:22.966Z,88.06
2023-06-30T10:11:22.969Z,86.36
2023-06-30T10:12:22.911Z,87.71
2023-06-30T10:13:22.950Z,87.81
2023-06-30T10:14:22.996Z,88.81
2023-06-30T10:15:22.893Z,87.81
2023-06-30T10:16:22.901Z,87.15
2023-06-30T10:17:23.263Z,89.05
2023-06-30T10:18:22.886Z,89.59
2023-06-30T10:19:22.847Z,89.03
2023-06-30T10:20:33.812Z,88.53
2023-06-30T10:21:22.883Z,89.28
2023-06-30T10:22:22.867Z,89.68
2023-06-30T10:23:22.835Z,88.62
2023-06-30T10:24:22.797Z,91.32
2023-06-30T10:25:22.922Z,93.97
2023-06-30T10:26:22.789Z,93.87
2023-06-30T10:27:22.815Z,93.77
2023-06-30T10:28:22.756Z,93.62
2023-06-30T10:29:22.739Z,94.12
2023-06-30T10:30:22.740Z,95.16
2023-06-30T10:31:22.737Z,95.56
2023-06-30T10:32:22.820Z,95.76
2023-06-30T10:33:22.868Z,96.41
2023-06-30T10:34:22.728Z,96.41
2023-06-30T10:35:22.727Z,96.01
2023-06-30T10:36:22.669Z,96.51
2023-06-30T10:37:22.677Z,97.66
2023-06-30T10:38:22.670Z,97.46
2023-06-30T10:39:22.693Z,97.96
2023-06-30T10:40:22.617Z,98.16
2023-06-30T10:41:22.683Z,97.06
2023-06-30T10:42:22.613Z,98.46
2023-06-30T10:43:22.717Z,98.57
2023-06-30T10:44:22.585Z,98.66
2023-06-30T10:45:22.582Z,98.86
2023-06-30T10:46:22.614Z,98.86
2023-06-30T10:47:22.592Z,98.36
2023-06-30T10:48:22.561Z,98.01
2023-06-30T10:49:22.536Z,97.66
2023-06-30T10:50:22.524Z,98.36
2023-06-30T10:51:22.549Z,98.25
2023-06-30T10:52:22.552Z,98.16
2023-06-30T10:53:22.550Z,99.16
2023-06-30T10:54:22.486Z,99.46
2023-06-30T10:55:22.491Z,99.87
2023-06-30T10:56:22.451Z,99.87
2023-06-30T10:57:22.480Z,99.99
2023-06-30T10:58:22.430Z,99.41
2023-06-30T10:59:22.464Z,99.99
2023-06-30T11:00:22.418Z,99.99
2023-06-30T11:01:22.408Z,99.99
2023-06-30T11:02:22.424Z,99.99
2023-06-30T11:03:22.524Z,99.99
2023-06-30T11:04:22.550Z,99.37
2023-06-30T11:05:22.397Z,98.07
2023-06-30T11:06:22.363Z,98.26
2023-06-30T11:07:22.418Z,98.57
2023-06-30T11:08:22.363Z,99.37
2023-06-30T11:09:22.353Z,98.57
2023-06-30T11:10:22.295Z,99.07
2023-06-30T11:11:22.321Z,98.07
2023-06-30T11:12:22.315Z,98.01
2023-06-30T11:13:22.327Z,98.51
2023-06-30T11:14:22.269Z,99.52
2023-06-30T11:15:22.270Z,99.97
2023-06-30T11:16:22.226Z,99.99
2023-06-30T11:17:22.289Z,99.47
2023-06-30T11:18:22.572Z,99.37
2023-06-30T11:19:22.222Z,99.99
2023-06-30T11:20:22.194Z,99.62
2023-06-30T11:21:22.191Z,98.72
2023-06-30T11:22:22.210Z,99.07
2023-06-30T11:23:22.194Z,98.67
2023-06-30T11:24:22.194Z,98.47
2023-06-30T11:25:22.141Z,98.07
2023-06-30T11:26:22.122Z,98.27
2023-06-30T11:27:22.123Z,98.27
2023-06-30T11:28:22.135Z,98.77
2023-06-30T11:29:22.142Z,98.07
2023-06-30T11:30:22.100Z,98.27
2023-06-30T11:31:22.137Z,98.42
2023-06-30T11:32:22.120Z,99.17
2023-06-30T11:33:22.074Z,98.87
2023-06-30T11:34:22.037Z,99.27
2023-06-30T11:35:22.061Z,98.52
2023-06-30T11:36:22.035Z,98.32
2023-06-30T11:37:22.028Z,98.22
2023-06-30T11:38:22.022Z,97.32
2023-06-30T11:39:22.000Z,95.12
2023-06-30T11:40:22.055Z,96.56
2023-06-30T11:41:22.076Z,97.47
2023-06-30T11:42:21.954Z,98.72
2023-06-30T11:43:21.959Z,99.02
2023-06-30T11:44:21.939Z,99.16
2023-06-30T11:45:21.962Z,97.11
2023-06-30T11:46:21.971Z,98.21
2023-06-30T11:47:22.039Z,98.61
2023-06-30T11:48:21.897Z,98.51
2023-06-30T11:49:21.900Z,99.01
2023-06-30T11:50:21.876Z,97.55
2023-06-30T11:51:21.895Z,98.81
2023-06-30T11:52:21.875Z,97.96
2023-06-30T11:53:21.851Z,98.25
2023-06-30T11:54:21.837Z,97.05
2023-06-30T11:55:21.859Z,96.39
2023-06-30T11:56:21.975Z,97.50
2023-06-30T11:57:21.837Z,97.60
2023-06-30T11:58:21.857Z,97.04
2023-06-30T11:59:21.799Z,97.44
2023-06-30T12:00:21.827Z,98.45
2023-06-30T12:01:21.806Z,98.75
2023-06-30T12:02:21.863Z,98.05
2023-06-30T12:03:21.770Z,98.05
2023-06-30T12:04:21.836Z,97.85
2023-06-30T12:05:21.775Z,98.30
2023-06-30T12:06:21.708Z,97.80
2023-06-30T12:07:21.739Z,96.54
2023-06-30T12:08:21.692Z,98.20
2023-06-30T12:09:21.676Z,97.70
2023-06-30T12:10:21.683Z,97.50
2023-06-30T12:11:21.662Z,97.05
2023-06-30T12:12:21.640Z,96.45
2023-06-30T12:13:21.650Z,96.25
2023-06-30T12:14:21.637Z,95.79
2023-06-30T12:15:21.658Z,96.69
2023-06-30T12:16:21.630Z,98.36
2023-06-30T12:17:21.664Z,98.25
2023-06-30T12:18:21.578Z,97.85
2023-06-30T12:19:21.564Z,97.55
2023-06-30T12:20:21.556Z,97.85
2023-06-30T12:21:21.579Z,96.04
2023-06-30T12:22:21.604Z,96.95
2023-06-30T12:23:21.533Z,97.25
2023-06-30T12:24:21.521Z,97.66
2023-06-30T12:25:21.525Z,96.55
2023-06-30T12:26:21.500Z,98.16
2023-06-30T12:27:21.516Z,97.70
2023-06-30T12:28:21.475Z,96.80
2023-06-30T12:29:21.479Z,97.60
2023-06-30T12:30:22.079Z,97.20
2023-06-30T12:31:21.477Z,97.70
2023-06-30T12:32:21.512Z,98.20
2023-06-30T12:33:21.432Z,98.40
2023-06-30T12:34:21.421Z,98.10
2023-06-30T12:35:21.402Z,99.01
2023-06-30T12:36:21.386Z,98.71
2023-06-30T12:37:21.477Z,99.31
2023-06-30T12:38:21.380Z,98.55
2023-06-30T12:39:21.369Z,98.95
2023-06-30T12:40:21.347Z,99.11
2023-06-30T12:41:21.387Z,99.31
2023-06-30T12:42:21.341Z,99.01
2023-06-30T12:43:21.339Z,99.11
2023-06-30T12:44:21.358Z,99.01
2023-06-30T12:45:21.297Z,99.01
2023-06-30T12:46:21.356Z,98.66
2023-06-30T12:47:21.309Z,98.16
2023-06-30T12:48:21.273Z,97.55
2023-06-30T12:49:21.251Z,98.16
2023-06-30T12:50:21.252Z,97.55
2023-06-30T12:51:21.290Z,97.25
2023-06-30T12:52:21.228Z,97.45